createdAt,value
2023-05-07T00:00:23.849Z,99.90
2023-05-07T00:02:53.259Z,99.90
2023-05-07T00:05:21.357Z,99.90
2023-05-07T00:07:49.096Z,99.90
2023-05-07T00:10:16.898Z,99.90
2023-05-07T00:12:44.694Z,99.90
2023-05-07T00:15:12.645Z,99.90
2023-05-07T00:17:40.673Z,99.90
2023-05-07T00:20:10.569Z,99.90
2023-05-07T00:22:38.667Z,99.90
2023-05-07T00:25:07.072Z,99.90
2023-05-07T00:27:34.793Z,99.90
2023-05-07T00:30:02.563Z,99.90
2023-05-07T00:32:30.360Z,99.90
2023-05-07T00:34:58.172Z,99.90
2023-05-07T00:37:27.288Z,99.90
2023-05-07T00:39:54.996Z,99.90
2023-05-07T00:42:22.725Z,99.90
2023-05-07T00:44:50.582Z,99.90
2023-05-07T00:47:18.842Z,99.90
2023-05-07T00:49:47.333Z,99.90
2023-05-07T00:52:15.926Z,99.90
2023-05-07T00:54:45.064Z,99.90
2023-05-07T00:57:13.120Z,99.90
2023-05-07T00:59:41.699Z,99.90
2023-05-07T01:02:09.383Z,99.90
2023-05-07T01:04:37.660Z,99.90
2023-05-07T01:07:06.634Z,99.90
2023-05-07T01:09:36.308Z,99.90
2023-05-07T01:12:06.354Z,99.90
2023-05-07T01:14:34.665Z,99.90
2023-05-07T01:17:02.730Z,99.90
2023-05-07T01:19:31.276Z,99.90
2023-05-07T01:22:03.335Z,99.90
2023-05-07T01:24:32.659Z,99.90
2023-05-07T01:27:00.389Z,99.90
2023-05-07T01:29:28.090Z,99.90
2023-05-07T01:31:56.626Z,99.90
2023-05-07T01:34:24.678Z,99.90
2023-05-07T01:36:52.841Z,99.90
2023-05-07T01:39:20.721Z,99.90
2023-05-07T01:41:49.800Z,99.90
2023-05-07T01:44:18.616Z,99.90
2023-05-07T01:46:46.654Z,99.90
2023-05-07T01:49:14.376Z,99.90
2023-05-07T01:51:42.066Z,99.90
2023-05-07T01:54:09.804Z,99.90
2023-05-07T01:56:37.519Z,99.90
2023-05-07T01:59:06.554Z,99.90
2023-05-07T02:01:34.310Z,99.90
2023-05-07T02:04:02.157Z,99.90
2023-05-07T02:06:29.868Z,99.90
2023-05-07T02:08:57.543Z,99.90
2023-05-07T02:11:26.301Z,99.90
2023-05-07T02:13:54.066Z,99.90
2023-05-07T02:16:24.140Z,99.90
2023-05-07T02:18:52.069Z,99.90
2023-05-07T02:21:19.798Z,99.90
2023-05-07T02:23:47.515Z,99.90
2023-05-07T02:26:15.244Z,99.90
2023-05-07T02:28:42.978Z,99.90
2023-05-07T02:31:10.675Z,99.90
2023-05-07T02:33:39.730Z,99.90
2023-05-07T02:36:07.944Z,99.90
2023-05-07T02:38:35.863Z,99.90
2023-05-07T02:41:03.716Z,99.90
2023-05-07T02:43:31.429Z,99.90
2023-05-07T02:46:02.785Z,99.90
2023-05-07T02:48:30.733Z,99.90
2023-05-07T02:50:59.933Z,99.90
2023-05-07T02:53:27.674Z,99.90
2023-05-07T02:55:55.604Z,99.90
2023-05-07T02:58:23.322Z,99.90
2023-05-07T03:00:51.229Z,99.90
2023-05-07T03:03:18.905Z,99.90
2023-05-07T03:05:46.636Z,99.90
2023-05-07T03:08:15.835Z,99.90
2023-05-07T03:10:43.593Z,99.90
2023-05-07T03:13:11.541Z,99.90
2023-05-07T03:15:39.361Z,99.90
2023-05-07T03:18:07.282Z,99.90
2023-05-07T03:20:35.196Z,99.90
2023-05-07T03:23:02.928Z,99.90
2023-05-07T03:25:32.138Z,99.90
2023-05-07T03:28:00.045Z,99.90
2023-05-07T03:30:27.804Z,99.90
2023-05-07T03:32:55.550Z,99.90
2023-05-07T03:35:23.324Z,99.90
2023-05-07T03:37:51.657Z,99.90
2023-05-07T03:40:19.614Z,99.90
2023-05-07T03:42:48.636Z,99.90
2023-05-07T03:45:16.448Z,99.90
2023-05-07T03:47:44.321Z,99.90
2023-05-07T03:50:12.591Z,99.90
2023-05-07T03:52:40.608Z,99.90
2023-05-07T03:55:08.737Z,99.90
2023-05-07T03:57:36.471Z,99.90
2023-05-07T04:00:07.476Z,99.90
2023-05-07T04:02:35.426Z,99.90
2023-05-07T04:05:03.118Z,99.90
2023-05-07T04:07:30.853Z,99.90
2023-05-07T04:09:58.794Z,99.90
2023-05-07T04:12:26.604Z,99.90
2023-05-07T04:14:54.340Z,99.90
2023-05-07T04:17:23.399Z,99.90
2023-05-07T04:19:51.120Z,99.90
2023-05-07T04:22:18.840Z,99.90
2023-05-07T04:24:46.621Z,99.90
2023-05-07T04:27:14.325Z,99.90
2023-05-07T04:29:43.366Z,99.90
2023-05-07T04:32:11.363Z,99.90
2023-05-07T04:34:40.524Z,99.90
2023-05-07T04:37:08.278Z,99.90
2023-05-07T04:39:36.302Z,99.90
2023-05-07T04:42:04.173Z,99.90
2023-05-07T04:44:32.088Z,99.90
2023-05-07T04:46:59.752Z,99.90
2023-05-07T04:49:27.470Z,99.90
2023-05-07T04:51:56.507Z,99.90
2023-05-07T04:54:26.175Z,99.90
2023-05-07T04:56:53.971Z,99.90
2023-05-07T04:59:21.702Z,99.90
2023-05-07T05:01:49.562Z,99.90
2023-05-07T05:04:17.300Z,99.90
2023-05-07T05:06:45.265Z,99.90
2023-05-07T05:09:15.293Z,99.90
2023-05-07T05:11:42.989Z,99.90
2023-05-07T05:14:10.792Z,99.90
2023-05-07T05:16:38.728Z,99.90
2023-05-07T05:19:06.451Z,99.90
2023-05-07T05:21:34.222Z,99.90
2023-05-07T05:24:01.967Z,99.90
2023-05-07T05:26:31.024Z,99.90
2023-05-07T05:28:58.703Z,99.90
2023-05-07T05:31:26.488Z,99.90
2023-05-07T05:33:54.336Z,99.90
2023-05-07T05:36:22.084Z,99.90
2023-05-07T05:38:49.802Z,99.90
2023-05-07T05:41:17.533Z,99.90
2023-05-07T05:43:46.657Z,99.90
2023-05-07T05:46:14.398Z,99.90
2023-05-07T05:48:42.166Z,99.90
2023-05-07T05:51:09.910Z,99.90
2023-05-07T05:53:37.945Z,99.90
2023-05-07T05:56:05.960Z,99.90
2023-05-07T05:58:33.802Z,99.90
2023-05-07T06:01:03.684Z,99.90
2023-05-07T06:03:31.493Z,99.90
2023-05-07T06:05:59.283Z,99.90
2023-05-07T06:08:27.008Z,99.90
2023-05-07T06:10:54.777Z,99.90
2023-05-07T06:13:22.619Z,99.90
2023-05-07T06:15:50.984Z,99.90
2023-05-07T06:18:20.100Z,99.90
2023-05-07T06:20:47.746Z,99.90
2023-05-07T06:23:17.790Z,99.90
2023-05-07T06:25:48.139Z,99.90
2023-05-07T06:28:15.883Z,99.90
2023-05-07T06:30:43.593Z,99.90
2023-05-07T06:33:11.322Z,99.90
2023-05-07T06:35:40.453Z,99.90
2023-05-07T06:38:08.214Z,99.90
2023-05-07T06:40:35.929Z,99.90
2023-05-07T06:43:03.667Z,99.90
2023-05-07T06:45:31.395Z,99.90
2023-05-07T06:47:59.160Z,99.90
2023-05-07T06:50:26.886Z,99.90
2023-05-07T06:52:56.001Z,99.90
2023-05-07T06:55:23.754Z,99.90
2023-05-07T06:57:51.520Z,99.90
2023-05-07T07:00:19.672Z,99.90
2023-05-07T07:02:47.641Z,99.90
2023-05-07T07:05:15.387Z,99.90
2023-05-07T07:07:43.146Z,99.90
2023-05-07T07:10:12.802Z,99.90
2023-05-07T07:12:40.714Z,99.90
2023-05-07T07:15:08.956Z,99.90
2023-05-07T07:17:36.665Z,99.90
2023-05-07T07:20:19.332Z,99.90
2023-05-07T07:22:47.048Z,99.90
2023-05-07T07:25:16.081Z,99.90
2023-05-07T07:27:50.485Z,99.90
2023-05-07T07:30:18.282Z,99.90
2023-05-07T07:32:46.027Z,99.90
2023-05-07T07:35:13.783Z,99.90
2023-05-07T07:37:41.552Z,99.90
2023-05-07T07:40:10.466Z,99.90
2023-05-07T07:42:39.862Z,99.90
2023-05-07T07:45:08.314Z,99.90
2023-05-07T07:47:36.107Z,99.90
2023-05-07T07:50:03.830Z,99.90
2023-05-07T07:52:31.539Z,99.90
2023-05-07T07:54:59.228Z,99.90
2023-05-07T07:57:26.957Z,99.90
2023-05-07T07:59:56.274Z,99.90
2023-05-07T08:02:24.221Z,99.90
2023-05-07T08:04:52.045Z,99.90
2023-05-07T08:07:21.605Z,99.90
2023-05-07T08:09:49.375Z,99.90
2023-05-07T08:12:17.173Z,99.90
2023-05-07T08:14:44.932Z,99.90
2023-05-07T08:17:16.839Z,99.90
2023-05-07T08:19:44.699Z,99.90
2023-05-07T08:22:12.935Z,99.90
2023-05-07T08:24:40.632Z,99.90
2023-05-07T08:27:08.373Z,99.90
2023-05-07T08:29:36.577Z,99.90
2023-05-07T08:32:04.422Z,99.90
2023-05-07T08:34:33.512Z,99.90
2023-05-07T08:37:01.289Z,99.90
2023-05-07T08:39:29.042Z,99.90
2023-05-07T08:41:57.715Z,99.90
2023-05-07T08:44:28.130Z,99.90
2023-05-07T08:46:57.549Z,99.90
2023-05-07T08:49:25.262Z,99.90
2023-05-07T08:51:54.339Z,99.90
2023-05-07T08:54:22.709Z,99.90
2023-05-07T08:56:50.860Z,99.90
2023-05-07T08:59:18.610Z,99.90
2023-05-07T09:01:46.601Z,99.90
2023-05-07T09:04:14.701Z,99.90
2023-05-07T09:06:43.047Z,99.90
2023-05-07T09:09:16.261Z,99.90
2023-05-07T09:11:43.973Z,99.90
2023-05-07T09:14:11.667Z,99.90
2023-05-07T09:16:39.974Z,99.90
2023-05-07T09:19:07.830Z,99.90
2023-05-07T09:21:35.556Z,99.90
2023-05-07T09:24:03.309Z,99.90
2023-05-07T09:26:34.066Z,99.90
2023-05-07T09:29:02.069Z,99.90
2023-05-07T09:31:29.770Z,99.90
2023-05-07T09:33:57.747Z,99.90
2023-05-07T09:36:25.536Z,99.90
2023-05-07T09:38:53.339Z,99.90
2023-05-07T09:41:21.955Z,99.90
2023-05-07T09:43:55.383Z,99.90
2023-05-07T09:46:25.417Z,99.90
2023-05-07T09:48:54.681Z,99.90
2023-05-07T09:51:24.463Z,99.90
2023-05-07T09:53:52.616Z,99.90
2023-05-07T09:56:22.188Z,99.90
2023-05-07T09:58:52.500Z,99.90
2023-05-07T10:01:23.065Z,99.90
2023-05-07T10:03:52.137Z,99.90
2023-05-07T10:06:20.446Z,99.90
2023-05-07T10:08:48.647Z,99.90
2023-05-07T10:11:16.850Z,99.90
2023-05-07T10:13:44.896Z,99.70
2023-05-07T10:16:14.193Z,99.70
2023-05-07T10:18:42.717Z,99.10
2023-05-07T10:21:12.916Z,99.50
2023-05-07T10:23:40.725Z,99.40
2023-05-07T10:26:10.414Z,98.30
2023-05-07T10:28:41.642Z,98.50
2023-05-07T10:31:24.277Z,98.20
2023-05-07T10:33:55.025Z,98.00
2023-05-07T10:36:23.640Z,97.90
2023-05-07T10:38:51.998Z,98.40
2023-05-07T10:41:19.862Z,97.80
2023-05-07T10:43:47.954Z,98.10
2023-05-07T10:46:18.153Z,97.40
2023-05-07T10:49:06.207Z,98.00
2023-05-07T10:51:35.574Z,98.90
2023-05-07T10:54:22.528Z,98.20
2023-05-07T10:56:51.584Z,99.00
2023-05-07T10:59:46.443Z,99.90
2023-05-07T11:02:16.165Z,99.50
2023-05-07T11:04:44.029Z,99.90
2023-05-07T11:07:23.279Z,99.60
2023-05-07T11:10:05.533Z,99.90
2023-05-07T11:12:49.552Z,99.90
2023-05-07T11:15:17.646Z,97.80
2023-05-07T11:17:55.207Z,98.10
2023-05-07T11:20:23.067Z,98.90
2023-05-07T11:22:55.495Z,98.50
2023-05-07T11:25:24.314Z,99.10
2023-05-07T11:27:52.121Z,99.80
2023-05-07T11:30:20.420Z,99.70
2023-05-07T11:32:50.008Z,99.90
2023-05-07T11:35:18.218Z,99.50
2023-05-07T11:37:46.475Z,99.90
2023-05-07T11:40:15.961Z,99.40
2023-05-07T11:42:44.106Z,97.30
2023-05-07T11:45:12.386Z,96.80
2023-05-07T11:47:40.454Z,96.40
2023-05-07T11:50:09.477Z,96.70
2023-05-07T11:52:37.502Z,96.20
2023-05-07T11:55:05.928Z,96.20
2023-05-07T11:57:35.660Z,97.00
2023-05-07T12:00:05.421Z,96.80
2023-05-07T12:02:36.127Z,96.50
2023-05-07T12:05:04.541Z,96.40
2023-05-07T12:07:32.813Z,96.20
2023-05-07T12:10:00.499Z,96.90
2023-05-07T12:12:28.704Z,96.20
2023-05-07T12:14:57.718Z,96.30
2023-05-07T12:17:25.560Z,97.10
2023-05-07T12:19:54.673Z,96.80
2023-05-07T12:22:22.578Z,96.60
2023-05-07T12:24:51.355Z,96.00
2023-05-07T12:27:19.311Z,96.00
2023-05-07T12:29:47.388Z,95.80
2023-05-07T12:32:17.587Z,96.20
2023-05-07T12:34:45.863Z,96.70
2023-05-07T12:37:14.633Z,96.80
2023-05-07T12:39:46.312Z,96.80
2023-05-07T12:42:17.078Z,96.40
2023-05-07T12:44:47.326Z,95.90
2023-05-07T12:47:15.057Z,96.00
2023-05-07T12:49:44.149Z,95.20
2023-05-07T12:52:13.159Z,94.60
2023-05-07T12:54:41.109Z,94.60
2023-05-07T12:57:09.558Z,94.40
2023-05-07T12:59:38.304Z,94.20
2023-05-07T13:02:06.303Z,94.30
2023-05-07T13:04:34.515Z,95.00
2023-05-07T13:07:03.733Z,95.20
2023-05-07T13:09:31.427Z,94.90
2023-05-07T13:12:01.073Z,95.20
2023-05-07T13:14:28.894Z,95.20
2023-05-07T13:16:56.597Z,95.20
2023-05-07T13:19:24.366Z,95.40
2023-05-07T13:21:52.080Z,96.00
2023-05-07T13:24:21.143Z,96.50
2023-05-07T13:26:48.869Z,96.60
2023-05-07T13:29:16.678Z,97.10
2023-05-07T13:31:45.173Z,97.40
2023-05-07T13:34:12.967Z,98.00
2023-05-07T13:36:42.932Z,98.70
2023-05-07T13:39:10.659Z,98.70
2023-05-07T13:41:39.742Z,98.90
2023-05-07T13:44:07.746Z,99.60
2023-05-07T13:46:35.608Z,99.90
2023-05-07T13:49:03.506Z,99.90
2023-05-07T13:51:31.236Z,99.90
2023-05-07T13:53:59.448Z,99.90
2023-05-07T13:56:29.486Z,99.90
2023-05-07T13:59:00.603Z,99.90
2023-05-07T14:01:29.222Z,99.90
2023-05-07T14:03:57.622Z,99.90
2023-05-07T14:06:25.555Z,99.90
2023-05-07T14:08:53.435Z,99.90
2023-05-07T14:11:21.797Z,99.90
2023-05-07T14:13:49.523Z,99.90
2023-05-07T14:16:18.635Z,99.90
2023-05-07T14:18:46.429Z,99.90
2023-05-07T14:21:15.030Z,99.90
2023-05-07T14:23:42.825Z,99.90
2023-05-07T14:26:10.585Z,99.90
2023-05-07T14:28:40.477Z,99.90
2023-05-07T14:31:08.440Z,99.90
2023-05-07T14:33:38.690Z,99.90
2023-05-07T14:36:07.999Z,99.90
2023-05-07T14:38:35.735Z,99.90
2023-05-07T14:41:03.474Z,99.90
2023-05-07T14:43:31.247Z,99.90
2023-05-07T14:45:58.978Z,99.90
2023-05-07T14:48:26.695Z,99.90
2023-05-07T14:50:55.899Z,99.90
2023-05-07T14:53:23.811Z,99.90
2023-05-07T14:55:51.553Z,99.90
2023-05-07T14:58:19.322Z,99.90
2023-05-07T15:00:47.104Z,99.90
2023-05-07T15:03:14.900Z,99.90
2023-05-07T15:05:42.694Z,99.90
2023-05-07T15:08:11.846Z,99.90
2023-05-07T15:10:42.145Z,99.90
2023-05-07T15:13:13.442Z,99.90
2023-05-07T15:15:43.958Z,99.90
2023-05-07T15:18:11.726Z,99.90
2023-05-07T15:20:39.488Z,99.90
2023-05-07T15:23:10.537Z,99.90
2023-05-07T15:25:39.711Z,99.90
2023-05-07T15:28:07.831Z,99.90
2023-05-07T15:30:35.544Z,99.90
2023-05-07T15:33:03.533Z,99.90
2023-05-07T15:35:31.422Z,99.90
2023-05-07T15:37:59.519Z,99.90
2023-05-07T15:40:27.229Z,99.90
2023-05-07T15:42:57.862Z,99.90
2023-05-07T15:45:25.830Z,99.90
2023-05-07T15:47:53.705Z,99.90
2023-05-07T15:50:21.673Z,99.90
2023-05-07T15:52:49.451Z,99.90
2023-05-07T15:55:17.218Z,99.90
2023-05-07T15:57:45.004Z,99.90
2023-05-07T16:00:16.902Z,99.90
2023-05-07T16:02:44.695Z,99.90
2023-05-07T16:05:13.682Z,99.90
2023-05-07T16:07:44.086Z,99.90
2023-05-07T16:10:12.481Z,99.90
2023-05-07T16:12:40.223Z,99.90
2023-05-07T16:15:08.499Z,99.90
2023-05-07T16:17:38.026Z,99.90
2023-05-07T16:20:08.707Z,99.90
2023-05-07T16:22:37.031Z,99.90
2023-05-07T16:25:05.267Z,99.90
2023-05-07T16:27:33.058Z,99.90
2023-05-07T16:30:00.857Z,99.90
2023-05-07T16:32:29.965Z,99.90
2023-05-07T16:34:59.194Z,99.90
2023-05-07T16:37:27.028Z,99.90
2023-05-07T16:39:56.418Z,99.90
2023-05-07T16:42:24.160Z,99.90
2023-05-07T16:44:52.066Z,99.90
2023-05-07T16:47:19.826Z,99.90
2023-05-07T16:49:47.572Z,99.90
2023-05-07T16:52:16.610Z,99.90
2023-05-07T16:54:44.306Z,99.90
2023-05-07T16:57:12.049Z,99.90
2023-05-07T16:59:39.903Z,99.90
2023-05-07T17:02:07.900Z,99.90
2023-05-07T17:04:35.633Z,99.90
2023-05-07T17:07:03.357Z,99.90
2023-05-07T17:09:32.410Z,99.90
2023-05-07T17:12:00.182Z,99.90
2023-05-07T17:14:28.156Z,99.90
2023-05-07T17:16:55.918Z,99.90
2023-05-07T17:19:23.755Z,99.90
2023-05-07T17:21:51.501Z,99.90
2023-05-07T17:24:19.215Z,99.90
2023-05-07T17:26:49.802Z,99.90
2023-05-07T17:29:17.746Z,99.90
2023-05-07T17:31:45.667Z,99.90
2023-05-07T17:34:13.427Z,99.90
2023-05-07T17:36:41.166Z,99.90
2023-05-07T17:39:09.055Z,99.90
2023-05-07T17:41:37.158Z,99.90
2023-05-07T17:44:06.341Z,99.90
2023-05-07T17:46:34.209Z,99.90
2023-05-07T17:49:02.032Z,99.90
2023-05-07T17:51:33.826Z,99.90
2023-05-07T17:54:10.405Z,99.90
2023-05-07T17:56:38.655Z,99.90
2023-05-07T17:59:07.787Z,99.90
2023-05-07T18:01:35.523Z,99.90
2023-05-07T18:04:03.660Z,99.90
2023-05-07T18:06:32.092Z,99.90
2023-05-07T18:09:00.405Z,99.90
2023-05-07T18:11:29.181Z,99.90
2023-05-07T18:13:56.879Z,99.90
2023-05-07T18:16:26.023Z,99.90
2023-05-07T18:18:53.733Z,99.90
2023-05-07T18:21:21.591Z,99.90
2023-05-07T18:23:49.832Z,99.90
2023-05-07T18:26:17.890Z,99.90
2023-05-07T18:28:46.045Z,99.90
2023-05-07T18:31:13.930Z,99.90
2023-05-07T18:33:43.006Z,99.90
2023-05-07T18:36:10.826Z,99.90
2023-05-07T18:38:38.918Z,99.90
2023-05-07T18:41:07.040Z,99.90
2023-05-07T18:43:34.846Z,99.90
2023-05-07T18:46:02.632Z,99.90
2023-05-07T18:48:30.423Z,99.90
2023-05-07T18:50:59.453Z,99.90
2023-05-07T18:53:27.196Z,99.90
2023-05-07T18:55:54.860Z,99.90
2023-05-07T18:58:22.582Z,99.90
2023-05-07T19:00:50.772Z,99.90
2023-05-07T19:03:18.574Z,99.90
2023-05-07T19:05:46.630Z,99.90
2023-05-07T19:08:15.742Z,99.90
2023-05-07T19:10:43.483Z,99.90
2023-05-07T19:13:11.302Z,99.90
2023-05-07T19:15:39.168Z,99.90
2023-05-07T19:18:06.997Z,99.90
2023-05-07T19:20:34.750Z,99.90
2023-05-07T19:23:03.179Z,99.90
2023-05-07T19:25:32.247Z,99.90
2023-05-07T19:27:59.906Z,99.90
2023-05-07T19:30:27.648Z,99.90
2023-05-07T19:32:55.401Z,99.90
2023-05-07T19:35:23.137Z,99.90
2023-05-07T19:37:51.024Z,99.90
2023-05-07T19:40:18.882Z,99.90
2023-05-07T19:42:47.958Z,99.90
2023-05-07T19:45:16.175Z,99.90
2023-05-07T19:47:43.959Z,99.90
2023-05-07T19:50:12.146Z,99.90
2023-05-07T19:52:39.848Z,99.90
2023-05-07T19:55:08.536Z,99.90
2023-05-07T19:57:36.257Z,99.90
2023-05-07T20:00:06.597Z,99.90
2023-05-07T20:02:34.447Z,99.90
2023-05-07T20:05:02.270Z,99.90
2023-05-07T20:07:30.028Z,99.90
2023-05-07T20:09:57.771Z,99.90
2023-05-07T20:12:25.864Z,99.90
2023-05-07T20:14:53.606Z,99.90
2023-05-07T20:17:22.761Z,99.90
2023-05-07T20:19:50.575Z,99.90
2023-05-07T20:22:18.253Z,99.90
2023-05-07T20:24:45.994Z,99.90
2023-05-07T20:27:13.727Z,99.90
2023-05-07T20:29:41.464Z,99.90
2023-05-07T20:32:09.304Z,99.90
2023-05-07T20:34:38.370Z,99.90
2023-05-07T20:37:06.087Z,99.90
2023-05-07T20:39:33.812Z,99.90
2023-05-07T20:42:01.581Z,99.90
2023-05-07T20:44:30.626Z,99.90
2023-05-07T20:46:58.283Z,99.90
2023-05-07T20:49:26.054Z,99.90
2023-05-07T20:51:55.062Z,99.90
2023-05-07T20:54:23.015Z,99.90
2023-05-07T20:56:51.051Z,99.90
2023-05-07T20:59:18.781Z,99.90
2023-05-07T21:01:46.575Z,99.90
2023-05-07T21:04:14.359Z,99.90
2023-05-07T21:06:42.614Z,99.90
2023-05-07T21:09:11.762Z,99.90
2023-05-07T21:11:39.562Z,99.90
2023-05-07T21:14:07.311Z,99.90
2023-05-07T21:16:35.086Z,99.90
2023-05-07T21:19:02.809Z,99.90
2023-05-07T21:21:31.175Z,99.90
2023-05-07T21:23:58.934Z,99.90
2023-05-07T21:26:28.019Z,99.90
2023-05-07T21:28:55.744Z,99.90
2023-05-07T21:31:23.529Z,99.90
2023-05-07T21:33:53.089Z,99.90
2023-05-07T21:36:21.226Z,99.90
2023-05-07T21:38:48.968Z,99.90
2023-05-07T21:41:17.002Z,99.90
2023-05-07T21:43:46.082Z,99.90
2023-05-07T21:46:13.898Z,99.90
2023-05-07T21:48:41.647Z,99.90
2023-05-07T21:51:09.431Z,99.90
2023-05-07T21:53:37.304Z,99.90
2023-05-07T21:56:05.434Z,99.90
2023-05-07T21:58:33.216Z,99.90
2023-05-07T22:01:02.652Z,99.90
2023-05-07T22:03:30.513Z,99.90
2023-05-07T22:05:58.329Z,99.90
2023-05-07T22:08:26.166Z,99.90
2023-05-07T22:10:53.902Z,99.90
2023-05-07T22:13:21.688Z,99.90
2023-05-07T22:15:57.549Z,99.90
2023-05-07T22:18:27.640Z,99.90
2023-05-07T22:20:55.401Z,99.90
2023-05-07T22:23:23.090Z,99.90
2023-05-07T22:25:50.843Z,99.90
2023-05-07T22:28:18.581Z,99.90
2023-05-07T22:30:46.377Z,99.90
2023-05-07T22:33:14.315Z,99.90
2023-05-07T22:35:43.445Z,99.90
2023-05-07T22:38:11.251Z,99.90
2023-05-07T22:40:38.960Z,99.90
2023-05-07T22:43:06.680Z,99.90
2023-05-07T22:45:34.413Z,99.90
2023-05-07T22:48:02.182Z,99.90
2023-05-07T22:50:29.979Z,99.90
2023-05-07T22:52:59.013Z,99.90
2023-05-07T22:55:27.216Z,99.90
2023-05-07T22:57:54.980Z,99.90
2023-05-07T23:00:22.867Z,99.90
2023-05-07T23:02:50.663Z,99.90
2023-05-07T23:05:18.392Z,99.90
2023-05-07T23:07:46.072Z,99.90
2023-05-07T23:10:15.182Z,99.90
2023-05-07T23:12:43.898Z,99.90
2023-05-07T23:15:12.310Z,99.90
2023-05-07T23:17:40.206Z,99.90
2023-05-07T23:20:08.857Z,99.90
2023-05-07T23:22:36.552Z,99.90
2023-05-07T23:25:04.518Z,99.90
2023-05-07T23:27:33.597Z,99.90
2023-05-07T23:30:01.340Z,99.90
2023-05-07T23:32:29.171Z,99.90
2023-05-07T23:34:56.941Z,99.90
2023-05-07T23:37:25.028Z,99.90
2023-05-07T23:39:55.657Z,99.90
2023-05-07T23:42:23.425Z,99.90
2023-05-07T23:44:52.518Z,99.90
2023-05-07T23:47:21.571Z,99.90
2023-05-07T23:49:49.468Z,99.90
2023-05-07T23:52:17.172Z,99.90
2023-05-07T23:54:45.073Z,99.90
2023-05-07T23:57:12.798Z,99.90
2023-05-07T23:59:40.640Z,99.90
